sensor_id;sensor_type;location;lat;lon;timestamp;pressure;altitude;pressure_sealevel;temperature;humidity
76590;BME280;65471;55.908;37.880;2023-05-21T00:02:20;100447.81;;;10.96;85.21
76590;BME280;65471;55.908;37.880;2023-05-21T00:04:47;100444.28;;;10.95;85.59
76590;BME280;65471;55.908;37.880;2023-05-21T00:07:14;100446.97;;;10.95;85.39
76590;BME280;65471;55.908;37.880;2023-05-21T00:09:41;100446.97;;;10.95;85.50
76590;BME280;65471;55.908;37.880;2023-05-21T00:12:08;100439.69;;;10.96;85.23
76590;BME280;65471;55.908;37.880;2023-05-21T00:14:35;100433.25;;;10.90;85.22
76590;BME280;65471;55.908;37.880;2023-05-21T00:17:02;100439.91;;;10.94;85.46
76590;BME280;65471;55.908;37.880;2023-05-21T00:19:29;100442.38;;;10.96;85.19
76590;BME280;65471;55.908;37.880;2023-05-21T00:21:58;100439.69;;;10.96;85.61
76590;BME280;65471;55.908;37.880;2023-05-21T00:24:28;100440.53;;;10.96;85.38
76590;BME280;65471;55.908;37.880;2023-05-21T00:26:55;100434.50;;;10.94;85.59
76590;BME280;65471;55.908;37.880;2023-05-21T00:29:22;100435.34;;;10.95;85.49
76590;BME280;65471;55.908;37.880;2023-05-21T00:31:49;100439.47;;;10.97;85.48
76590;BME280;65471;55.908;37.880;2023-05-21T00:34:17;100435.34;;;10.95;85.28
76590;BME280;65471;55.908;37.880;2023-05-21T00:36:45;100430.31;;;10.98;85.65
76590;BME280;65471;55.908;37.880;2023-05-21T00:39:12;100430.31;;;10.98;85.79
76590;BME280;65471;55.908;37.880;2023-05-21T00:41:39;100426.56;;;10.99;85.58
76590;BME280;65471;55.908;37.880;2023-05-21T00:44:06;100431.16;;;10.99;85.62
76590;BME280;65471;55.908;37.880;2023-05-21T00:46:33;100435.72;;;10.98;85.46
76590;BME280;65471;55.908;37.880;2023-05-21T00:49:00;100441.13;;;10.98;85.69
76590;BME280;65471;55.908;37.880;2023-05-21T00:51:27;100435.28;;;11.01;85.31
76590;BME280;65471;55.908;37.880;2023-05-21T00:53:59;100434.91;;;10.98;85.57
76590;BME280;65471;55.908;37.880;2023-05-21T00:56:26;100440.69;;;11.01;85.94
76590;BME280;65471;55.908;37.880;2023-05-21T00:58:54;100434.25;;;11.02;85.48
76590;BME280;65471;55.908;37.880;2023-05-21T01:01:23;100431.53;;;11.02;85.33
76590;BME280;65471;55.908;37.880;2023-05-21T01:03:53;100440.28;;;11.04;85.51
76590;BME280;65471;55.908;37.880;2023-05-21T01:06:24;100438.38;;;11.05;85.67
76590;BME280;65471;55.908;37.880;2023-05-21T01:08:50;100443.81;;;11.05;85.54
76590;BME280;65471;55.908;37.880;2023-05-21T01:11:18;100439.44;;;11.04;85.23
76590;BME280;65471;55.908;37.880;2023-05-21T01:13:47;100446.94;;;11.02;85.58
76590;BME280;65471;55.908;37.880;2023-05-21T01:16:15;100444.47;;;11.00;85.81
76590;BME280;65471;55.908;37.880;2023-05-21T01:18:43;100441.34;;;10.97;85.69
76590;BME280;65471;55.908;37.880;2023-05-21T01:21:11;100450.28;;;10.97;85.35
76590;BME280;65471;55.908;37.880;2023-05-21T01:23:38;100444.06;;;10.97;85.68
76590;BME280;65471;55.908;37.880;2023-05-21T01:26:05;100448.44;;;10.98;85.93
76590;BME280;65471;55.908;37.880;2023-05-21T01:28:32;100446.53;;;10.98;85.65
76590;BME280;65471;55.908;37.880;2023-05-21T01:31:06;100441.75;;;11.00;85.81
76590;BME280;65471;55.908;37.880;2023-05-21T01:33:42;100445.50;;;10.99;85.37
76590;BME280;65471;55.908;37.880;2023-05-21T01:36:24;100437.81;;;10.96;85.42
76590;BME280;65471;55.908;37.880;2023-05-21T01:39:20;100448.81;;;11.01;85.89
76590;BME280;65471;55.908;37.880;2023-05-21T01:41:46;100447.16;;;11.00;85.62
76590;BME280;65471;55.908;37.880;2023-05-21T01:44:17;100454.00;;;11.03;85.84
76590;BME280;65471;55.908;37.880;2023-05-21T01:46:44;100446.09;;;11.01;85.58
76590;BME280;65471;55.908;37.880;2023-05-21T01:49:12;100448.59;;;11.03;85.56
76590;BME280;65471;55.908;37.880;2023-05-21T01:51:39;100445.28;;;11.01;85.42
76590;BME280;65471;55.908;37.880;2023-05-21T01:54:06;100445.06;;;11.02;85.80
76590;BME280;65471;55.908;37.880;2023-05-21T01:56:33;100438.63;;;11.03;85.45
76590;BME280;65471;55.908;37.880;2023-05-21T01:59:02;100443.19;;;11.03;85.36
76590;BME280;65471;55.908;37.880;2023-05-21T02:01:29;100442.97;;;11.04;85.49
76590;BME280;65471;55.908;37.880;2023-05-21T02:03:56;100442.97;;;11.04;85.87
76590;BME280;65471;55.908;37.880;2023-05-21T02:06:23;100443.59;;;11.07;85.62
76590;BME280;65471;55.908;37.880;2023-05-21T02:08:50;100445.25;;;11.08;85.99
76590;BME280;65471;55.908;37.880;2023-05-21T02:11:17;100441.47;;;11.09;85.64
76590;BME280;65471;55.908;37.880;2023-05-21T02:13:44;100449.41;;;11.10;85.45
76590;BME280;65471;55.908;37.880;2023-05-21T02:16:11;100444.81;;;11.11;85.70
76590;BME280;65471;55.908;37.880;2023-05-21T02:18:41;100443.78;;;11.12;85.55
76590;BME280;65471;55.908;37.880;2023-05-21T02:21:11;100453.75;;;11.11;85.73
76590;BME280;65471;55.908;37.880;2023-05-21T02:23:38;100456.44;;;11.11;85.58
76590;BME280;65471;55.908;37.880;2023-05-21T02:26:05;100446.47;;;11.12;85.96
76590;BME280;65471;55.908;37.880;2023-05-21T02:28:33;100447.06;;;11.14;86.13
76590;BME280;65471;55.908;37.880;2023-05-21T02:31:00;100449.78;;;11.14;85.68
76590;BME280;65471;55.908;37.880;2023-05-21T02:33:27;100446.03;;;11.15;85.88
76590;BME280;65471;55.908;37.880;2023-05-21T02:35:54;100447.66;;;11.16;85.86
76590;BME280;65471;55.908;37.880;2023-05-21T02:38:21;100452.47;;;11.14;85.76
76590;BME280;65471;55.908;37.880;2023-05-21T02:40:49;100447.66;;;11.16;86.02
76590;BME280;65471;55.908;37.880;2023-05-21T02:43:19;100454.75;;;11.17;86.03
76590;BME280;65471;55.908;37.880;2023-05-21T02:45:46;100456.41;;;11.18;86.00
76590;BME280;65471;55.908;37.880;2023-05-21T02:48:13;100462.44;;;11.20;85.70
76590;BME280;65471;55.908;37.880;2023-05-21T02:50:40;100461.16;;;11.22;85.92
76590;BME280;65471;55.908;37.880;2023-05-21T02:53:07;100459.50;;;11.21;86.03
76590;BME280;65471;55.908;37.880;2023-05-21T02:55:34;100455.97;;;11.21;85.70
76590;BME280;65471;55.908;37.880;2023-05-21T02:58:01;100455.97;;;11.21;85.89
76590;BME280;65471;55.908;37.880;2023-05-21T03:00:28;100457.00;;;11.20;85.94
76590;BME280;65471;55.908;37.880;2023-05-21T03:02:55;100465.13;;;11.20;85.77
76590;BME280;65471;55.908;37.880;2023-05-21T03:05:22;100467.63;;;11.21;85.69
76590;BME280;65471;55.908;37.880;2023-05-21T03:07:50;100465.75;;;11.22;85.60
76590;BME280;65471;55.908;37.880;2023-05-21T03:10:17;100471.78;;;11.24;86.03
76590;BME280;65471;55.908;37.880;2023-05-21T03:12:43;100462.00;;;11.23;85.65
76590;BME280;65471;55.908;37.880;2023-05-21T03:15:11;100467.63;;;11.21;85.99
76590;BME280;65471;55.908;37.880;2023-05-21T03:17:40;100454.09;;;11.21;85.97
76590;BME280;65471;55.908;37.880;2023-05-21T03:20:08;100458.41;;;11.29;85.63
76590;BME280;65471;55.908;37.880;2023-05-21T03:22:42;100467.75;;;11.33;85.60
76590;BME280;65471;55.908;37.880;2023-05-21T03:25:11;100459.19;;;11.36;85.57
76590;BME280;65471;55.908;37.880;2023-05-21T03:27:38;100457.78;;;11.27;85.67
76590;BME280;65471;55.908;37.880;2023-05-21T03:30:06;100461.72;;;11.31;86.03
76590;BME280;65471;55.908;37.880;2023-05-21T03:32:33;100472.56;;;11.31;85.64
76590;BME280;65471;55.908;37.880;2023-05-21T03:35:03;100461.72;;;11.31;85.73
76590;BME280;65471;55.908;37.880;2023-05-21T03:37:31;100471.06;;;11.35;85.78
76590;BME280;65471;55.908;37.880;2023-05-21T03:39:58;100468.53;;;11.40;85.82
76590;BME280;65471;55.908;37.880;2023-05-21T03:42:25;100465.84;;;11.40;85.69
76590;BME280;65471;55.908;37.880;2023-05-21T03:44:52;100467.50;;;11.42;85.61
76590;BME280;65471;55.908;37.880;2023-05-21T03:47:19;100467.28;;;11.43;85.20
76590;BME280;65471;55.908;37.880;2023-05-21T03:49:46;100468.53;;;11.40;85.51
76590;BME280;65471;55.908;37.880;2023-05-21T03:52:13;100468.53;;;11.40;85.24
76590;BME280;65471;55.908;37.880;2023-05-21T03:54:40;100472.28;;;11.39;85.34
76590;BME280;65471;55.908;37.880;2023-05-21T03:57:07;100475.63;;;11.42;85.48
76590;BME280;65471;55.908;37.880;2023-05-21T03:59:33;100468.91;;;11.44;85.25
76590;BME280;65471;55.908;37.880;2023-05-21T04:02:01;100470.34;;;11.47;85.25
76590;BME280;65471;55.908;37.880;2023-05-21T04:04:27;100481.59;;;11.50;85.08
76590;BME280;65471;55.908;37.880;2023-05-21T04:06:55;100478.66;;;11.52;84.95
76590;BME280;65471;55.908;37.880;2023-05-21T04:09:22;100468.66;;;11.52;85.03
76590;BME280;65471;55.908;37.880;2023-05-21T04:11:49;100483.63;;;11.55;85.14
76590;BME280;65471;55.908;37.880;2023-05-21T04:14:16;100471.91;;;11.61;85.26
76590;BME280;65471;55.908;37.880;2023-05-21T04:16:43;100471.84;;;11.68;84.99
76590;BME280;65471;55.908;37.880;2023-05-21T04:19:10;100477.69;;;11.71;85.11
76590;BME280;65471;55.908;37.880;2023-05-21T04:21:37;100476.38;;;11.74;84.66
76590;BME280;65471;55.908;37.880;2023-05-21T04:24:04;100472.19;;;11.78;84.71
76590;BME280;65471;55.908;37.880;2023-05-21T04:26:31;100474.88;;;11.78;84.80
76590;BME280;65471;55.908;37.880;2023-05-21T04:29:00;100476.16;;;11.75;84.49
76590;BME280;65471;55.908;37.880;2023-05-21T04:31:29;100466.00;;;11.71;84.49
76590;BME280;65471;55.908;37.880;2023-05-21T04:33:58;100471.19;;;11.72;84.58
76590;BME280;65471;55.908;37.880;2023-05-21T04:36:25;100470.59;;;11.70;84.19
76590;BME280;65471;55.908;37.880;2023-05-21T04:38:54;100467.03;;;11.70;84.20
76590;BME280;65471;55.908;37.880;2023-05-21T04:41:21;100470.13;;;11.73;84.25
76590;BME280;65471;55.908;37.880;2023-05-21T04:43:48;100472.25;;;11.71;84.18
76590;BME280;65471;55.908;37.880;2023-05-21T04:46:21;100464.13;;;11.71;84.08
76590;BME280;65471;55.908;37.880;2023-05-21T04:48:53;100470.38;;;11.72;84.29
76590;BME280;65471;55.908;37.880;2023-05-21T04:51:23;100468.94;;;11.69;83.78
76590;BME280;65471;55.908;37.880;2023-05-21T04:53:52;100471.84;;;11.68;83.66
76590;BME280;65471;55.908;37.880;2023-05-21T04:56:19;100473.97;;;11.66;83.51
76590;BME280;65471;55.908;37.880;2023-05-21T04:58:47;100465.66;;;11.61;83.67
76590;BME280;65471;55.908;37.880;2023-05-21T05:01:15;100467.38;;;11.55;83.12
76590;BME280;65471;55.908;37.880;2023-05-21T05:03:42;100479.69;;;11.51;82.56
76590;BME280;65471;55.908;37.880;2023-05-21T05:06:08;100482.19;;;11.52;82.59
76590;BME280;65471;55.908;37.880;2023-05-21T05:08:36;100491.53;;;11.56;82.66
76590;BME280;65471;55.908;37.880;2023-05-21T05:11:03;100480.66;;;11.63;82.44
76590;BME280;65471;55.908;37.880;2023-05-21T05:13:30;100483.50;;;11.68;82.28
76590;BME280;65471;55.908;37.880;2023-05-21T05:15:56;100482.25;;;11.71;82.32
76590;BME280;65471;55.908;37.880;2023-05-21T05:18:23;100480.97;;;11.73;82.03
76590;BME280;65471;55.908;37.880;2023-05-21T05:20:50;100489.09;;;11.73;81.92
76590;BME280;65471;55.908;37.880;2023-05-21T05:23:17;100487.00;;;11.75;81.98
76590;BME280;65471;55.908;37.880;2023-05-21T05:25:44;100480.53;;;11.77;81.84
76590;BME280;65471;55.908;37.880;2023-05-21T05:28:11;100481.34;;;11.77;81.90
76590;BME280;65471;55.908;37.880;2023-05-21T05:30:38;100484.06;;;11.77;81.92
76590;BME280;65471;55.908;37.880;2023-05-21T05:33:05;100486.63;;;11.72;81.57
76590;BME280;65471;55.908;37.880;2023-05-21T05:35:33;100496.63;;;11.71;81.31
76590;BME280;65471;55.908;37.880;2023-05-21T05:38:00;100487.22;;;11.74;81.47
76590;BME280;65471;55.908;37.880;2023-05-21T05:40:27;100492.59;;;11.81;81.31
76590;BME280;65471;55.908;37.880;2023-05-21T05:42:54;100489.19;;;11.85;80.95
76590;BME280;65471;55.908;37.880;2023-05-21T05:45:21;100488.94;;;11.94;80.57
76590;BME280;65471;55.908;37.880;2023-05-21T05:47:47;100487.22;;;11.99;80.72
76590;BME280;65471;55.908;37.880;2023-05-21T05:50:14;100490.25;;;12.09;80.46
76590;BME280;65471;55.908;37.880;2023-05-21T05:52:41;100495.56;;;12.23;80.31
76590;BME280;65471;55.908;37.880;2023-05-21T05:55:08;100485.59;;;12.35;80.16
76590;BME280;65471;55.908;37.880;2023-05-21T05:57:38;100489.28;;;12.41;80.12
76590;BME280;65471;55.908;37.880;2023-05-21T06:00:05;100499.69;;;12.44;79.32
76590;BME280;65471;55.908;37.880;2023-05-21T06:02:32;100498.41;;;12.47;78.79
76590;BME280;65471;55.908;37.880;2023-05-21T06:04:59;100498.78;;;12.50;78.58
76590;BME280;65471;55.908;37.880;2023-05-21T06:07:27;100497.50;;;12.53;78.08
76590;BME280;65471;55.908;37.880;2023-05-21T06:09:54;100500.59;;;12.56;77.73
76590;BME280;65471;55.908;37.880;2023-05-21T06:12:21;100496.97;;;12.63;77.69
76590;BME280;65471;55.908;37.880;2023-05-21T06:14:48;100504.22;;;12.69;77.69
76590;BME280;65471;55.908;37.880;2023-05-21T06:17:16;100497.41;;;12.78;77.54
76590;BME280;65471;55.908;37.880;2023-05-21T06:19:43;100503.22;;;12.82;77.58
76590;BME280;65471;55.908;37.880;2023-05-21T06:22:11;100499.09;;;12.91;77.07
76590;BME280;65471;55.908;37.880;2023-05-21T06:24:38;100495.38;;;13.04;77.12
76590;BME280;65471;55.908;37.880;2023-05-21T06:27:05;100492.72;;;13.16;76.64
76590;BME280;65471;55.908;37.880;2023-05-21T06:29:32;100485.63;;;13.15;75.91
76590;BME280;65471;55.908;37.880;2023-05-21T06:31:59;100488.72;;;13.18;75.78
76590;BME280;65471;55.908;37.880;2023-05-21T06:34:27;100492.03;;;13.20;75.58
76590;BME280;65471;55.908;37.880;2023-05-21T06:36:57;100493.94;;;13.20;75.13
76590;BME280;65471;55.908;37.880;2023-05-21T06:39:24;100495.09;;;13.24;75.08
76590;BME280;65471;55.908;37.880;2023-05-21T06:41:52;100490.84;;;13.28;74.83
76590;BME280;65471;55.908;37.880;2023-05-21T06:44:20;100489.09;;;13.34;74.61
76590;BME280;65471;55.908;37.880;2023-05-21T06:46:46;100487.69;;;13.31;74.04
76590;BME280;65471;55.908;37.880;2023-05-21T06:49:13;100488.47;;;13.38;73.64
76590;BME280;65471;55.908;37.880;2023-05-21T06:51:40;100491.53;;;13.42;73.28
76590;BME280;65471;55.908;37.880;2023-05-21T06:54:07;100490.38;;;13.50;72.93
76590;BME280;65471;55.908;37.880;2023-05-21T06:56:34;100497.44;;;13.51;72.59
76590;BME280;65471;55.908;37.880;2023-05-21T06:59:01;100487.53;;;13.56;72.29
76590;BME280;65471;55.908;37.880;2023-05-21T07:01:28;100494.16;;;13.60;71.60
76590;BME280;65471;55.908;37.880;2023-05-21T07:03:56;100499.97;;;13.64;70.87
76590;BME280;65471;55.908;37.880;2023-05-21T07:06:23;100492.38;;;13.66;70.44
76590;BME280;65471;55.908;37.880;2023-05-21T07:08:49;100503.50;;;13.76;70.56
76590;BME280;65471;55.908;37.880;2023-05-21T07:11:17;100496.78;;;13.91;69.32
76590;BME280;65471;55.908;37.880;2023-05-21T07:13:44;100495.59;;;13.98;69.00
76590;BME280;65471;55.908;37.880;2023-05-21T07:16:11;100493.22;;;14.02;69.02
76590;BME280;65471;55.908;37.880;2023-05-21T07:18:38;100504.94;;;14.03;68.60
76590;BME280;65471;55.908;37.880;2023-05-21T07:21:05;100493.84;;;14.04;68.44
76590;BME280;65471;55.908;37.880;2023-05-21T07:23:32;100502.09;;;14.09;68.84
76590;BME280;65471;55.908;37.880;2023-05-21T07:25:59;100509.19;;;14.10;68.80
76590;BME280;65471;55.908;37.880;2023-05-21T07:28:26;100510.50;;;14.20;68.09
76590;BME280;65471;55.908;37.880;2023-05-21T07:30:53;100506.44;;;14.22;67.99
76590;BME280;65471;55.908;37.880;2023-05-21T07:33:20;100493.69;;;14.23;67.52
76590;BME280;65471;55.908;37.880;2023-05-21T07:35:48;100501.88;;;14.23;67.58
76590;BME280;65471;55.908;37.880;2023-05-21T07:38:15;100502.56;;;14.30;67.31
76590;BME280;65471;55.908;37.880;2023-05-21T07:40:43;100499.47;;;14.38;67.17
76590;BME280;65471;55.908;37.880;2023-05-21T07:43:10;100500.53;;;14.37;66.84
76590;BME280;65471;55.908;37.880;2023-05-21T07:45:37;100501.25;;;14.32;66.82
76590;BME280;65471;55.908;37.880;2023-05-21T07:48:05;100498.88;;;14.36;67.27
76590;BME280;65471;55.908;37.880;2023-05-21T07:50:32;100498.03;;;14.59;66.99
76590;BME280;65471;55.908;37.880;2023-05-21T07:52:58;100495.66;;;14.63;65.51
76590;BME280;65471;55.908;37.880;2023-05-21T07:55:26;100495.03;;;14.73;65.41
76590;BME280;65471;55.908;37.880;2023-05-21T07:57:53;100493.59;;;14.82;64.21
76590;BME280;65471;55.908;37.880;2023-05-21T08:00:22;100487.47;;;15.04;63.89
76590;BME280;65471;55.908;37.880;2023-05-21T08:02:49;100487.44;;;15.32;63.35
76590;BME280;65471;55.908;37.880;2023-05-21T08:05:18;100483.91;;;15.49;61.96
76590;BME280;65471;55.908;37.880;2023-05-21T08:07:46;100491.09;;;15.55;61.85
76590;BME280;65471;55.908;37.880;2023-05-21T08:10:13;100486.31;;;15.62;61.87
76590;BME280;65471;55.908;37.880;2023-05-21T08:12:43;100483.84;;;15.78;61.20
76590;BME280;65471;55.908;37.880;2023-05-21T08:15:10;100492.44;;;15.86;61.11
76590;BME280;65471;55.908;37.880;2023-05-21T08:17:37;100493.19;;;15.65;60.06
76590;BME280;65471;55.908;37.880;2023-05-21T08:20:04;100497.69;;;15.42;60.39
76590;BME280;65471;55.908;37.880;2023-05-21T08:22:31;100491.22;;;15.31;60.74
76590;BME280;65471;55.908;37.880;2023-05-21T08:24:58;100486.94;;;15.35;60.70
76590;BME280;65471;55.908;37.880;2023-05-21T08:27:25;100484.88;;;15.26;60.82
76590;BME280;65471;55.908;37.880;2023-05-21T08:29:52;100498.41;;;15.21;60.89
76590;BME280;65471;55.908;37.880;2023-05-21T08:32:19;100490.25;;;15.21;60.60
76590;BME280;65471;55.908;37.880;2023-05-21T08:34:46;100485.81;;;15.48;60.05
76590;BME280;65471;55.908;37.880;2023-05-21T08:37:13;100479.56;;;15.82;59.16
76590;BME280;65471;55.908;37.880;2023-05-21T08:39:40;100477.00;;;16.14;59.01
76590;BME280;65471;55.908;37.880;2023-05-21T08:42:43;100485.75;;;16.33;58.61
76590;BME280;65471;55.908;37.880;2023-05-21T08:45:12;100476.41;;;16.51;57.78
76590;BME280;65471;55.908;37.880;2023-05-21T08:47:41;100473.72;;;16.79;57.16
76590;BME280;65471;55.908;37.880;2023-05-21T08:50:12;100476.91;;;16.93;56.89
76590;BME280;65471;55.908;37.880;2023-05-21T08:52:39;100477.56;;;16.78;57.90
76590;BME280;65471;55.908;37.880;2023-05-21T08:55:07;100480.06;;;16.84;57.42
76590;BME280;65471;55.908;37.880;2023-05-21T08:57:35;100474.66;;;17.12;56.50
76590;BME280;65471;55.908;37.880;2023-05-21T09:00:03;100478.75;;;17.09;56.16
76590;BME280;65471;55.908;37.880;2023-05-21T09:02:32;100479.97;;;16.74;56.45
76590;BME280;65471;55.908;37.880;2023-05-21T09:05:00;100476.09;;;16.70;57.15
76590;BME280;65471;55.908;37.880;2023-05-21T09:07:35;100469.44;;;16.61;57.00
76590;BME280;65471;55.908;37.880;2023-05-21T09:10:11;100477.56;;;16.55;57.12
76590;BME280;65471;55.908;37.880;2023-05-21T09:12:38;100481.69;;;16.58;56.60
76590;BME280;65471;55.908;37.880;2023-05-21T09:15:06;100475.84;;;16.49;56.64
76590;BME280;65471;55.908;37.880;2023-05-21T09:17:33;100462.31;;;16.60;56.91
76590;BME280;65471;55.908;37.880;2023-05-21T09:20:09;100471.91;;;16.62;56.27
76590;BME280;65471;55.908;37.880;2023-05-21T09:22:41;100476.25;;;16.85;56.35
76590;BME280;65471;55.908;37.880;2023-05-21T09:25:10;100467.75;;;17.04;55.81
76590;BME280;65471;55.908;37.880;2023-05-21T09:27:38;100464.28;;;17.14;55.46
76590;BME280;65471;55.908;37.880;2023-05-21T09:30:10;100454.09;;;17.04;55.63
76590;BME280;65471;55.908;37.880;2023-05-21T09:32:38;100457.88;;;16.98;55.61
76590;BME280;65471;55.908;37.880;2023-05-21T09:35:07;100459.53;;;16.99;55.19
76590;BME280;65471;55.908;37.880;2023-05-21T09:37:42;100458.41;;;17.00;55.30
76590;BME280;65471;55.908;37.880;2023-05-21T09:40:14;100454.41;;;17.07;55.21
76590;BME280;65471;55.908;37.880;2023-05-21T09:42:45;100458.09;;;17.23;54.68
76590;BME280;65471;55.908;37.880;2023-05-21T09:45:20;100462.19;;;17.21;54.15
76590;BME280;65471;55.908;37.880;2023-05-21T09:47:48;100459.66;;;17.14;55.07
76590;BME280;65471;55.908;37.880;2023-05-21T09:50:22;100461.09;;;17.22;54.83
76590;BME280;65471;55.908;37.880;2023-05-21T09:52:50;100456.72;;;17.21;54.61
76590;BME280;65471;55.908;37.880;2023-05-21T09:55:22;100469.16;;;17.06;54.88
76590;BME280;65471;55.908;37.880;2023-05-21T09:57:49;100455.44;;;16.79;55.15
76590;BME280;65471;55.908;37.880;2023-05-21T10:00:19;100460.59;;;16.76;55.32
76590;BME280;65471;55.908;37.880;2023-05-21T10:02:48;100457.56;;;16.72;54.79
76590;BME280;65471;55.908;37.880;2023-05-21T10:05:16;100455.91;;;16.71;54.79
76590;BME280;65471;55.908;37.880;2023-05-21T10:07:48;100454.75;;;16.67;54.68
76590;BME280;65471;55.908;37.880;2023-05-21T10:10:18;100467.53;;;16.61;54.66
76590;BME280;65471;55.908;37.880;2023-05-21T10:12:48;100457.56;;;16.50;55.01
76590;BME280;65471;55.908;37.880;2023-05-21T10:15:22;100458.59;;;16.44;55.03
76590;BME280;65471;55.908;37.880;2023-05-21T10:17:51;100459.34;;;16.39;55.20
76590;BME280;65471;55.908;37.880;2023-05-21T10:20:18;100463.16;;;16.38;55.57
76590;BME280;65471;55.908;37.880;2023-05-21T10:22:46;100464.22;;;16.37;54.95
76590;BME280;65471;55.908;37.880;2023-05-21T10:25:14;100460.72;;;16.42;55.38
76590;BME280;65471;55.908;37.880;2023-05-21T10:27:41;100465.94;;;16.43;56.48
76590;BME280;65471;55.908;37.880;2023-05-21T10:30:09;100467.34;;;16.46;56.22
76590;BME280;65471;55.908;37.880;2023-05-21T10:32:38;100462.09;;;16.39;55.56
76590;BME280;65471;55.908;37.880;2023-05-21T10:35:07;100476.78;;;16.38;56.13
76590;BME280;65471;55.908;37.880;2023-05-21T10:37:35;100468.03;;;16.36;56.52
76590;BME280;65471;55.908;37.880;2023-05-21T10:40:02;100468.03;;;16.36;57.32
76590;BME280;65471;55.908;37.880;2023-05-21T10:51:14;100468.03;;;16.36;56.27
76590;BME280;65471;55.908;37.880;2023-05-21T10:54:10;100464.56;;;16.41;56.23
76590;BME280;65471;55.908;37.880;2023-05-21T10:56:48;100463.03;;;16.72;55.54
76590;BME280;65471;55.908;37.880;2023-05-21T10:59:29;100468.25;;;17.01;55.82
76590;BME280;65471;55.908;37.880;2023-05-21T11:02:00;100468.94;;;17.13;55.38
76590;BME280;65471;55.908;37.880;2023-05-21T11:04:29;100469.50;;;17.15;54.90
76590;BME280;65471;55.908;37.880;2023-05-21T11:06:57;100472.44;;;17.08;55.53
76590;BME280;65471;55.908;37.880;2023-05-21T11:09:26;100481.56;;;16.92;55.63
76590;BME280;65471;55.908;37.880;2023-05-21T11:11:56;100480.28;;;16.78;55.57
76590;BME280;65471;55.908;37.880;2023-05-21T11:14:34;100486.63;;;16.61;56.28
76590;BME280;65471;55.908;37.880;2023-05-21T11:19:36;100478.94;;;16.36;57.15
76590;BME280;65471;55.908;37.880;2023-05-21T11:22:19;100473.09;;;16.27;57.78
76590;BME280;65471;55.908;37.880;2023-05-21T11:24:47;100471.22;;;16.28;58.78
76590;BME280;65471;55.908;37.880;2023-05-21T11:27:40;100466.91;;;16.32;59.25
76590;BME280;65471;55.908;37.880;2023-05-21T11:30:14;100460.81;;;16.69;58.95
76590;BME280;65471;55.908;37.880;2023-05-21T11:33:20;100455.94;;;17.96;56.55
76590;BME280;65471;55.908;37.880;2023-05-21T11:38:20;100457.19;;;18.25;54.49
76590;BME280;65471;55.908;37.880;2023-05-21T11:40:53;100456.38;;;17.82;55.06
76590;BME280;65471;55.908;37.880;2023-05-21T11:43:21;100455.84;;;17.48;55.62
76590;BME280;65471;55.908;37.880;2023-05-21T11:45:51;100447.19;;;17.29;56.48
76590;BME280;65471;55.908;37.880;2023-05-21T11:48:20;100453.03;;;17.10;56.65
76590;BME280;65471;55.908;37.880;2023-05-21T11:50:47;100451.81;;;16.96;57.28
76590;BME280;65471;55.908;37.880;2023-05-21T11:53:14;100452.84;;;16.89;57.46
76590;BME280;65471;55.908;37.880;2023-05-21T11:55:41;100453.59;;;16.85;57.81
76590;BME280;65471;55.908;37.880;2023-05-21T11:58:12;100445.31;;;16.74;58.13
76590;BME280;65471;55.908;37.880;2023-05-21T12:00:39;100452.84;;;16.67;58.06
76590;BME280;65471;55.908;37.880;2023-05-21T12:03:06;100455.19;;;16.59;57.40
76590;BME280;65471;55.908;37.880;2023-05-21T12:05:48;100459.16;;;16.68;56.53
76590;BME280;65471;55.908;37.880;2023-05-21T12:08:22;100454.81;;;16.72;56.12
76590;BME280;65471;55.908;37.880;2023-05-21T12:10:57;100463.75;;;16.67;56.13
76590;BME280;65471;55.908;37.880;2023-05-21T12:13:26;100460.66;;;16.59;56.69
76590;BME280;65471;55.908;37.880;2023-05-21T12:15:53;100454.00;;;16.49;56.63
76590;BME280;65471;55.908;37.880;2023-05-21T12:18:20;100463.19;;;16.43;56.57
76590;BME280;65471;55.908;37.880;2023-05-21T12:20:47;100463.41;;;16.36;56.02
76590;BME280;65471;55.908;37.880;2023-05-21T12:23:24;100469.13;;;16.35;55.70
76590;BME280;65471;55.908;37.880;2023-05-21T12:25:51;100470.75;;;16.36;55.74
76590;BME280;65471;55.908;37.880;2023-05-21T12:28:22;100472.16;;;16.38;55.43
76590;BME280;65471;55.908;37.880;2023-05-21T12:30:50;100467.03;;;16.42;55.69
76590;BME280;65471;55.908;37.880;2023-05-21T12:33:17;100470.38;;;16.49;56.60
76590;BME280;65471;55.908;37.880;2023-05-21T12:35:48;100467.72;;;16.54;56.35
76590;BME280;65471;55.908;37.880;2023-05-21T12:38:16;100459.06;;;16.63;56.36
76590;BME280;65471;55.908;37.880;2023-05-21T12:40:43;100462.78;;;16.79;55.61
76590;BME280;65471;55.908;37.880;2023-05-21T12:43:11;100461.94;;;16.95;54.41
76590;BME280;65471;55.908;37.880;2023-05-21T12:45:38;100457.41;;;17.06;53.01
76590;BME280;65471;55.908;37.880;2023-05-21T12:48:06;100455.91;;;17.20;52.75
76590;BME280;65471;55.908;37.880;2023-05-21T12:50:33;100454.06;;;17.31;53.24
76590;BME280;65471;55.908;37.880;2023-05-21T12:53:01;100457.66;;;17.37;52.63
76590;BME280;65471;55.908;37.880;2023-05-21T12:55:29;100461.00;;;17.44;52.13
76590;BME280;65471;55.908;37.880;2023-05-21T12:58:02;100459.44;;;17.53;52.28
76590;BME280;65471;55.908;37.880;2023-05-21T13:00:30;100456.53;;;17.65;50.62
76590;BME280;65471;55.908;37.880;2023-05-21T13:02:58;100457.03;;;17.94;48.97